sensor_id;sensor_type;location;lat;lon;timestamp;P1;durP1;ratioP1;P2;durP2;ratioP2
3006;SDS011;1513;47.650;10.720;2023-10-13T00:01:59;10.90;;;2.43;;
3006;SDS011;1513;47.650;10.720;2023-10-13T00:04:26;11.30;;;2.90;;
3006;SDS011;1513;47.650;10.720;2023-10-13T00:06:56;15.33;;;3.20;;
3006;SDS011;1513;47.650;10.720;2023-10-13T00:09:23;7.47;;;2.30;;
3006;SDS011;1513;47.650;10.720;2023-10-13T00:11:51;8.93;;;2.63;;
3006;SDS011;1513;47.650;10.720;2023-10-13T00:14:19;13.73;;;2.97;;
3006;SDS011;1513;47.650;10.720;2023-10-13T00:16:56;8.53;;;3.93;;
3006;SDS011;1513;47.650;10.720;2023-10-13T00:19:37;8.93;;;3.40;;
3006;SDS011;1513;47.650;10.720;2023-10-13T00:22:07;5.47;;;2.60;;
3006;SDS011;1513;47.650;10.720;2023-10-13T00:24:37;3.47;;;2.40;;
3006;SDS011;1513;47.650;10.720;2023-10-13T00:27:17;6.53;;;2.40;;
3006;SDS011;1513;47.650;10.720;2023-10-13T00:29:56;6.23;;;2.67;;
3006;SDS011;1513;47.650;10.720;2023-10-13T00:32:45;5.73;;;2.20;;
3006;SDS011;1513;47.650;10.720;2023-10-13T00:35:17;6.07;;;2.87;;
3006;SDS011;1513;47.650;10.720;2023-10-13T00:38:04;5.53;;;2.30;;
3006;SDS011;1513;47.650;10.720;2023-10-13T00:40:40;7.03;;;2.17;;
3006;SDS011;1513;47.650;10.720;2023-10-13T00:43:07;6.70;;;2.30;;
3006;SDS011;1513;47.650;10.720;2023-10-13T00:45:46;12.83;;;2.70;;
3006;SDS011;1513;47.650;10.720;2023-10-13T00:48:26;5.27;;;2.50;;
3006;SDS011;1513;47.650;10.720;2023-10-13T00:50:58;4.73;;;2.20;;
3006;SDS011;1513;47.650;10.720;2023-10-13T00:53:29;9.97;;;2.60;;
3006;SDS011;1513;47.650;10.720;2023-10-13T00:56:01;10.90;;;2.60;;
3006;SDS011;1513;47.650;10.720;2023-10-13T00:58:49;10.03;;;2.80;;
3006;SDS011;1513;47.650;10.720;2023-10-13T01:01:16;12.23;;;2.70;;
3006;SDS011;1513;47.650;10.720;2023-10-13T01:03:44;11.77;;;2.80;;
3006;SDS011;1513;47.650;10.720;2023-10-13T01:06:14;12.03;;;2.53;;
3006;SDS011;1513;47.650;10.720;2023-10-13T01:08:45;9.30;;;2.00;;
3006;SDS011;1513;47.650;10.720;2023-10-13T01:11:17;12.93;;;2.80;;
3006;SDS011;1513;47.650;10.720;2023-10-13T01:13:44;5.00;;;2.30;;
3006;SDS011;1513;47.650;10.720;2023-10-13T01:16:16;7.50;;;2.40;;
3006;SDS011;1513;47.650;10.720;2023-10-13T01:18:43;8.57;;;2.63;;
3006;SDS011;1513;47.650;10.720;2023-10-13T01:21:16;7.63;;;2.30;;
3006;SDS011;1513;47.650;10.720;2023-10-13T01:23:45;5.77;;;2.10;;
3006;SDS011;1513;47.650;10.720;2023-10-13T01:26:13;4.70;;;2.63;;
3006;SDS011;1513;47.650;10.720;2023-10-13T01:28:42;6.67;;;2.90;;
3006;SDS011;1513;47.650;10.720;2023-10-13T01:31:12;11.60;;;2.60;;
3006;SDS011;1513;47.650;10.720;2023-10-13T01:33:50;7.90;;;2.43;;
3006;SDS011;1513;47.650;10.720;2023-10-13T01:36:22;6.83;;;2.10;;
3006;SDS011;1513;47.650;10.720;2023-10-13T01:38:48;7.80;;;2.70;;
3006;SDS011;1513;47.650;10.720;2023-10-13T01:41:15;7.10;;;2.50;;
3006;SDS011;1513;47.650;10.720;2023-10-13T01:43:42;6.77;;;2.43;;
3006;SDS011;1513;47.650;10.720;2023-10-13T01:46:09;9.13;;;2.33;;
3006;SDS011;1513;47.650;10.720;2023-10-13T01:48:39;7.03;;;2.67;;
3006;SDS011;1513;47.650;10.720;2023-10-13T01:51:06;9.57;;;2.50;;
3006;SDS011;1513;47.650;10.720;2023-10-13T01:53:38;4.30;;;2.40;;
3006;SDS011;1513;47.650;10.720;2023-10-13T01:56:07;5.50;;;2.90;;
3006;SDS011;1513;47.650;10.720;2023-10-13T01:58:40;6.90;;;3.13;;
3006;SDS011;1513;47.650;10.720;2023-10-13T02:01:07;12.33;;;4.43;;
3006;SDS011;1513;47.650;10.720;2023-10-13T02:03:35;15.80;;;4.60;;
3006;SDS011;1513;47.650;10.720;2023-10-13T02:06:22;8.43;;;4.00;;
3006;SDS011;1513;47.650;10.720;2023-10-13T02:08:49;6.60;;;3.67;;
3006;SDS011;1513;47.650;10.720;2023-10-13T02:11:22;9.40;;;3.63;;
3006;SDS011;1513;47.650;10.720;2023-10-13T02:13:48;9.30;;;3.90;;
3006;SDS011;1513;47.650;10.720;2023-10-13T02:16:16;11.60;;;3.73;;
3006;SDS011;1513;47.650;10.720;2023-10-13T02:18:46;7.97;;;3.70;;
3006;SDS011;1513;47.650;10.720;2023-10-13T02:21:16;7.27;;;3.50;;
3006;SDS011;1513;47.650;10.720;2023-10-13T02:23:43;5.87;;;3.37;;
3006;SDS011;1513;47.650;10.720;2023-10-13T02:26:11;7.50;;;2.90;;
3006;SDS011;1513;47.650;10.720;2023-10-13T02:28:46;9.27;;;3.63;;
3006;SDS011;1513;47.650;10.720;2023-10-13T02:31:17;12.47;;;3.47;;
3006;SDS011;1513;47.650;10.720;2023-10-13T02:33:45;6.07;;;3.33;;
3006;SDS011;1513;47.650;10.720;2023-10-13T02:36:11;9.40;;;3.20;;
3006;SDS011;1513;47.650;10.720;2023-10-13T02:38:38;7.30;;;2.70;;
3006;SDS011;1513;47.650;10.720;2023-10-13T02:41:10;5.20;;;3.00;;
3006;SDS011;1513;47.650;10.720;2023-10-13T02:44:05;9.70;;;3.20;;
3006;SDS011;1513;47.650;10.720;2023-10-13T02:46:34;12.73;;;2.73;;
3006;SDS011;1513;47.650;10.720;2023-10-13T02:49:05;11.77;;;3.37;;
3006;SDS011;1513;47.650;10.720;2023-10-13T02:51:36;7.53;;;3.43;;
3006;SDS011;1513;47.650;10.720;2023-10-13T02:54:08;5.07;;;2.80;;
3006;SDS011;1513;47.650;10.720;2023-10-13T02:56:43;7.33;;;2.70;;
3006;SDS011;1513;47.650;10.720;2023-10-13T02:59:33;7.53;;;2.80;;
3006;SDS011;1513;47.650;10.720;2023-10-13T03:02:00;6.67;;;3.30;;
3006;SDS011;1513;47.650;10.720;2023-10-13T03:04:46;6.83;;;3.10;;
3006;SDS011;1513;47.650;10.720;2023-10-13T03:07:13;6.30;;;2.60;;
3006;SDS011;1513;47.650;10.720;2023-10-13T03:09:50;8.60;;;3.77;;
3006;SDS011;1513;47.650;10.720;2023-10-13T03:12:17;6.60;;;2.97;;
3006;SDS011;1513;47.650;10.720;2023-10-13T03:14:44;11.43;;;2.87;;
3006;SDS011;1513;47.650;10.720;2023-10-13T03:17:13;9.90;;;3.50;;
3006;SDS011;1513;47.650;10.720;2023-10-13T03:19:42;11.73;;;2.60;;
3006;SDS011;1513;47.650;10.720;2023-10-13T03:22:15;5.50;;;2.57;;
3006;SDS011;1513;47.650;10.720;2023-10-13T03:24:43;5.30;;;2.70;;
3006;SDS011;1513;47.650;10.720;2023-10-13T03:27:12;6.77;;;3.20;;
3006;SDS011;1513;47.650;10.720;2023-10-13T03:29:43;8.53;;;3.30;;
3006;SDS011;1513;47.650;10.720;2023-10-13T03:32:12;10.90;;;3.23;;
3006;SDS011;1513;47.650;10.720;2023-10-13T03:34:44;9.97;;;3.40;;
3006;SDS011;1513;47.650;10.720;2023-10-13T03:37:26;7.33;;;3.70;;
3006;SDS011;1513;47.650;10.720;2023-10-13T03:40:08;8.97;;;3.90;;
3006;SDS011;1513;47.650;10.720;2023-10-13T03:42:48;9.20;;;3.60;;
3006;SDS011;1513;47.650;10.720;2023-10-13T03:45:25;8.77;;;3.53;;
3006;SDS011;1513;47.650;10.720;2023-10-13T03:47:52;8.23;;;3.63;;
3006;SDS011;1513;47.650;10.720;2023-10-13T03:50:21;7.93;;;3.90;;
3006;SDS011;1513;47.650;10.720;2023-10-13T03:52:57;6.23;;;3.30;;
3006;SDS011;1513;47.650;10.720;2023-10-13T03:55:25;9.83;;;4.00;;
3006;SDS011;1513;47.650;10.720;2023-10-13T03:57:54;7.47;;;2.73;;
3006;SDS011;1513;47.650;10.720;2023-10-13T04:00:24;8.40;;;3.90;;
3006;SDS011;1513;47.650;10.720;2023-10-13T04:02:53;12.13;;;3.50;;
3006;SDS011;1513;47.650;10.720;2023-10-13T04:05:33;13.33;;;3.57;;
3006;SDS011;1513;47.650;10.720;2023-10-13T04:08:26;10.73;;;4.10;;
3006;SDS011;1513;47.650;10.720;2023-10-13T04:10:53;5.80;;;3.00;;
3006;SDS011;1513;47.650;10.720;2023-10-13T04:13:20;10.00;;;3.30;;
3006;SDS011;1513;47.650;10.720;2023-10-13T04:16:07;11.20;;;4.20;;
3006;SDS011;1513;47.650;10.720;2023-10-13T04:18:40;11.27;;;2.60;;
3006;SDS011;1513;47.650;10.720;2023-10-13T04:21:45;7.63;;;2.70;;
3006;SDS011;1513;47.650;10.720;2023-10-13T04:24:37;9.97;;;2.50;;
3006;SDS011;1513;47.650;10.720;2023-10-13T04:27:03;9.43;;;3.17;;
3006;SDS011;1513;47.650;10.720;2023-10-13T04:29:48;7.57;;;3.10;;
3006;SDS011;1513;47.650;10.720;2023-10-13T04:32:26;7.70;;;2.80;;
3006;SDS011;1513;47.650;10.720;2023-10-13T04:34:58;10.07;;;3.67;;
3006;SDS011;1513;47.650;10.720;2023-10-13T04:37:42;12.60;;;3.30;;
3006;SDS011;1513;47.650;10.720;2023-10-13T04:40:40;6.37;;;2.90;;
3006;SDS011;1513;47.650;10.720;2023-10-13T04:43:24;14.33;;;4.07;;
3006;SDS011;1513;47.650;10.720;2023-10-13T04:46:19;7.23;;;4.07;;
3006;SDS011;1513;47.650;10.720;2023-10-13T04:49:05;4.43;;;3.70;;
3006;SDS011;1513;47.650;10.720;2023-10-13T04:51:57;12.20;;;4.53;;
3006;SDS011;1513;47.650;10.720;2023-10-13T04:54:29;8.77;;;4.00;;
3006;SDS011;1513;47.650;10.720;2023-10-13T04:57:17;8.67;;;4.10;;
3006;SDS011;1513;47.650;10.720;2023-10-13T04:59:47;8.63;;;3.50;;
3006;SDS011;1513;47.650;10.720;2023-10-13T05:02:34;7.30;;;3.60;;
3006;SDS011;1513;47.650;10.720;2023-10-13T05:05:01;7.07;;;3.97;;
3006;SDS011;1513;47.650;10.720;2023-10-13T05:07:42;9.13;;;4.23;;
3006;SDS011;1513;47.650;10.720;2023-10-13T05:10:28;10.40;;;3.80;;
3006;SDS011;1513;47.650;10.720;2023-10-13T05:13:13;9.07;;;3.93;;
3006;SDS011;1513;47.650;10.720;2023-10-13T05:15:58;11.00;;;3.63;;
3006;SDS011;1513;47.650;10.720;2023-10-13T05:18:43;11.03;;;3.63;;
3006;SDS011;1513;47.650;10.720;2023-10-13T05:21:28;12.13;;;3.57;;
3006;SDS011;1513;47.650;10.720;2023-10-13T05:24:13;29.20;;;5.27;;
3006;SDS011;1513;47.650;10.720;2023-10-13T05:26:58;18.47;;;4.43;;
3006;SDS011;1513;47.650;10.720;2023-10-13T05:29:43;16.03;;;3.70;;
3006;SDS011;1513;47.650;10.720;2023-10-13T05:32:29;6.57;;;3.10;;
3006;SDS011;1513;47.650;10.720;2023-10-13T05:35:14;9.90;;;3.20;;
3006;SDS011;1513;47.650;10.720;2023-10-13T05:37:59;10.63;;;3.90;;
3006;SDS011;1513;47.650;10.720;2023-10-13T05:40:51;6.53;;;3.20;;
3006;SDS011;1513;47.650;10.720;2023-10-13T05:43:43;10.00;;;3.30;;
3006;SDS011;1513;47.650;10.720;2023-10-13T05:46:28;13.63;;;3.90;;
3006;SDS011;1513;47.650;10.720;2023-10-13T05:49:04;16.60;;;2.53;;
3006;SDS011;1513;47.650;10.720;2023-10-13T05:51:31;7.67;;;3.50;;
3006;SDS011;1513;47.650;10.720;2023-10-13T05:54:09;11.13;;;2.60;;
3006;SDS011;1513;47.650;10.720;2023-10-13T05:56:42;9.33;;;2.90;;
3006;SDS011;1513;47.650;10.720;2023-10-13T05:59:31;8.33;;;2.67;;
3006;SDS011;1513;47.650;10.720;2023-10-13T06:02:18;8.33;;;2.40;;
3006;SDS011;1513;47.650;10.720;2023-10-13T06:05:04;10.57;;;3.90;;
3006;SDS011;1513;47.650;10.720;2023-10-13T06:08:10;7.60;;;3.30;;
3006;SDS011;1513;47.650;10.720;2023-10-13T06:11:01;6.60;;;3.20;;
3006;SDS011;1513;47.650;10.720;2023-10-13T06:13:47;8.40;;;3.47;;
3006;SDS011;1513;47.650;10.720;2023-10-13T06:16:31;7.07;;;3.43;;
3006;SDS011;1513;47.650;10.720;2023-10-13T06:19:16;5.63;;;2.90;;
3006;SDS011;1513;47.650;10.720;2023-10-13T06:22:01;13.17;;;3.10;;
3006;SDS011;1513;47.650;10.720;2023-10-13T06:24:47;7.57;;;2.77;;
3006;SDS011;1513;47.650;10.720;2023-10-13T06:27:32;12.10;;;3.93;;
3006;SDS011;1513;47.650;10.720;2023-10-13T06:30:17;10.43;;;3.80;;
3006;SDS011;1513;47.650;10.720;2023-10-13T06:32:44;5.93;;;3.27;;
3006;SDS011;1513;47.650;10.720;2023-10-13T06:35:11;4.10;;;2.70;;
3006;SDS011;1513;47.650;10.720;2023-10-13T06:37:50;15.10;;;3.57;;
3006;SDS011;1513;47.650;10.720;2023-10-13T06:40:16;7.97;;;3.47;;
3006;SDS011;1513;47.650;10.720;2023-10-13T06:42:58;9.90;;;3.63;;
3006;SDS011;1513;47.650;10.720;2023-10-13T06:45:57;6.60;;;2.10;;
3006;SDS011;1513;47.650;10.720;2023-10-13T06:48:28;10.70;;;2.37;;
3006;SDS011;1513;47.650;10.720;2023-10-13T06:50:58;7.73;;;2.03;;
3006;SDS011;1513;47.650;10.720;2023-10-13T06:53:30;7.47;;;2.03;;
3006;SDS011;1513;47.650;10.720;2023-10-13T06:56:05;2.20;;;1.50;;
3006;SDS011;1513;47.650;10.720;2023-10-13T06:58:32;9.43;;;1.90;;
3006;SDS011;1513;47.650;10.720;2023-10-13T07:00:58;6.07;;;2.50;;
3006;SDS011;1513;47.650;10.720;2023-10-13T07:03:27;4.43;;;2.00;;
3006;SDS011;1513;47.650;10.720;2023-10-13T07:05:53;5.27;;;2.50;;
3006;SDS011;1513;47.650;10.720;2023-10-13T07:08:24;9.73;;;2.20;;
3006;SDS011;1513;47.650;10.720;2023-10-13T07:10:51;15.17;;;2.60;;
3006;SDS011;1513;47.650;10.720;2023-10-13T07:13:36;11.10;;;2.50;;
3006;SDS011;1513;47.650;10.720;2023-10-13T07:16:12;6.80;;;1.80;;
3006;SDS011;1513;47.650;10.720;2023-10-13T07:18:38;4.57;;;2.10;;
3006;SDS011;1513;47.650;10.720;2023-10-13T07:21:28;10.70;;;3.50;;
3006;SDS011;1513;47.650;10.720;2023-10-13T07:23:57;7.57;;;2.40;;
3006;SDS011;1513;47.650;10.720;2023-10-13T07:26:33;5.20;;;2.60;;
3006;SDS011;1513;47.650;10.720;2023-10-13T07:29:00;6.47;;;2.40;;
3006;SDS011;1513;47.650;10.720;2023-10-13T07:31:27;12.97;;;3.33;;
3006;SDS011;1513;47.650;10.720;2023-10-13T07:33:53;10.50;;;4.30;;
3006;SDS011;1513;47.650;10.720;2023-10-13T07:36:30;6.57;;;4.17;;
3006;SDS011;1513;47.650;10.720;2023-10-13T07:39:04;5.33;;;2.20;;
3006;SDS011;1513;47.650;10.720;2023-10-13T07:41:56;7.13;;;2.87;;
3006;SDS011;1513;47.650;10.720;2023-10-13T07:44:40;5.10;;;2.60;;
3006;SDS011;1513;47.650;10.720;2023-10-13T07:47:11;7.40;;;2.90;;
3006;SDS011;1513;47.650;10.720;2023-10-13T07:49:39;15.87;;;2.80;;
3006;SDS011;1513;47.650;10.720;2023-10-13T07:52:07;7.73;;;3.00;;
3006;SDS011;1513;47.650;10.720;2023-10-13T07:54:49;7.77;;;2.80;;
3006;SDS011;1513;47.650;10.720;2023-10-13T07:57:36;6.97;;;2.60;;
3006;SDS011;1513;47.650;10.720;2023-10-13T08:00:18;9.63;;;2.77;;
3006;SDS011;1513;47.650;10.720;2023-10-13T08:03:12;5.63;;;2.43;;
3006;SDS011;1513;47.650;10.720;2023-10-13T08:05:42;9.80;;;5.97;;
3006;SDS011;1513;47.650;10.720;2023-10-13T08:08:29;18.80;;;9.40;;
3006;SDS011;1513;47.650;10.720;2023-10-13T08:11:08;6.83;;;4.20;;
3006;SDS011;1513;47.650;10.720;2023-10-13T08:13:50;14.83;;;3.47;;
3006;SDS011;1513;47.650;10.720;2023-10-13T08:16:41;17.23;;;3.80;;
3006;SDS011;1513;47.650;10.720;2023-10-13T08:19:15;6.50;;;2.70;;
3006;SDS011;1513;47.650;10.720;2023-10-13T08:21:46;6.60;;;2.60;;
3006;SDS011;1513;47.650;10.720;2023-10-13T08:24:23;7.30;;;2.20;;
3006;SDS011;1513;47.650;10.720;2023-10-13T08:27:13;7.47;;;2.67;;
3006;SDS011;1513;47.650;10.720;2023-10-13T08:29:59;2.97;;;1.77;;
3006;SDS011;1513;47.650;10.720;2023-10-13T08:32:27;6.00;;;2.07;;
3006;SDS011;1513;47.650;10.720;2023-10-13T08:34:58;4.33;;;2.10;;
3006;SDS011;1513;47.650;10.720;2023-10-13T08:37:28;9.50;;;3.47;;
3006;SDS011;1513;47.650;10.720;2023-10-13T08:39:58;11.70;;;5.00;;
3006;SDS011;1513;47.650;10.720;2023-10-13T08:42:32;14.10;;;4.20;;
3006;SDS011;1513;47.650;10.720;2023-10-13T08:45:14;14.33;;;4.20;;
3006;SDS011;1513;47.650;10.720;2023-10-13T08:48:07;11.73;;;3.50;;
3006;SDS011;1513;47.650;10.720;2023-10-13T08:53:17;8.00;;;2.63;;
3006;SDS011;1513;47.650;10.720;2023-10-13T08:55:57;5.00;;;2.10;;
3006;SDS011;1513;47.650;10.720;2023-10-13T08:58:39;5.33;;;2.40;;
3006;SDS011;1513;47.650;10.720;2023-10-13T09:01:37;5.43;;;2.20;;
3006;SDS011;1513;47.650;10.720;2023-10-13T09:04:25;10.50;;;3.03;;
3006;SDS011;1513;47.650;10.720;2023-10-13T09:07:00;6.97;;;2.33;;
3006;SDS011;1513;47.650;10.720;2023-10-13T09:09:31;3.70;;;1.90;;
3006;SDS011;1513;47.650;10.720;2023-10-13T09:12:17;5.40;;;2.67;;
3006;SDS011;1513;47.650;10.720;2023-10-13T09:14:59;4.10;;;2.10;;
3006;SDS011;1513;47.650;10.720;2023-10-13T09:20:38;9.33;;;2.73;;
3006;SDS011;1513;47.650;10.720;2023-10-13T09:23:11;4.40;;;2.63;;
3006;SDS011;1513;47.650;10.720;2023-10-13T09:25:49;5.53;;;2.43;;
3006;SDS011;1513;47.650;10.720;2023-10-13T09:28:19;9.10;;;2.67;;
3006;SDS011;1513;47.650;10.720;2023-10-13T09:30:51;10.43;;;2.80;;
3006;SDS011;1513;47.650;10.720;2023-10-13T09:33:24;10.13;;;2.70;;
3006;SDS011;1513;47.650;10.720;2023-10-13T09:36:10;11.07;;;2.93;;
3006;SDS011;1513;47.650;10.720;2023-10-13T09:38:38;7.13;;;3.50;;
3006;SDS011;1513;47.650;10.720;2023-10-13T09:41:13;3.53;;;1.97;;
3006;SDS011;1513;47.650;10.720;2023-10-13T09:43:52;5.43;;;2.50;;
3006;SDS011;1513;47.650;10.720;2023-10-13T09:46:23;11.03;;;2.87;;
3006;SDS011;1513;47.650;10.720;2023-10-13T09:49:04;6.90;;;2.37;;
3006;SDS011;1513;47.650;10.720;2023-10-13T09:51:48;8.43;;;2.70;;
3006;SDS011;1513;47.650;10.720;2023-10-13T09:54:20;8.57;;;2.60;;
3006;SDS011;1513;47.650;10.720;2023-10-13T09:56:50;12.23;;;4.17;;
3006;SDS011;1513;47.650;10.720;2023-10-13T09:59:31;4.87;;;2.13;;
3006;SDS011;1513;47.650;10.720;2023-10-13T10:02:05;4.10;;;2.30;;
3006;SDS011;1513;47.650;10.720;2023-10-13T10:04:34;12.90;;;2.93;;
3006;SDS011;1513;47.650;10.720;2023-10-13T10:07:23;7.53;;;2.90;;
3006;SDS011;1513;47.650;10.720;2023-10-13T10:09:57;8.43;;;2.47;;
3006;SDS011;1513;47.650;10.720;2023-10-13T10:18:01;12.17;;;2.67;;
3006;SDS011;1513;47.650;10.720;2023-10-13T10:20:32;6.63;;;2.40;;
3006;SDS011;1513;47.650;10.720;2023-10-13T10:23:07;5.03;;;2.60;;
3006;SDS011;1513;47.650;10.720;2023-10-13T10:25:38;5.57;;;2.50;;
3006;SDS011;1513;47.650;10.720;2023-10-13T10:28:10;5.40;;;2.20;;
3006;SDS011;1513;47.650;10.720;2023-10-13T10:30:41;7.03;;;2.00;;
3006;SDS011;1513;47.650;10.720;2023-10-13T10:33:09;6.63;;;2.20;;
3006;SDS011;1513;47.650;10.720;2023-10-13T10:35:47;6.57;;;2.10;;
3006;SDS011;1513;47.650;10.720;2023-10-13T10:38:23;5.43;;;2.23;;
3006;SDS011;1513;47.650;10.720;2023-10-13T10:40:58;7.33;;;2.47;;
3006;SDS011;1513;47.650;10.720;2023-10-13T10:46:17;5.03;;;2.17;;
3006;SDS011;1513;47.650;10.720;2023-10-13T10:48:44;4.33;;;2.17;;
3006;SDS011;1513;47.650;10.720;2023-10-13T10:51:11;7.80;;;2.57;;
3006;SDS011;1513;47.650;10.720;2023-10-13T10:53:51;5.80;;;2.90;;
3006;SDS011;1513;47.650;10.720;2023-10-13T10:56:19;9.60;;;2.27;;
3006;SDS011;1513;47.650;10.720;2023-10-13T10:59:05;10.10;;;2.10;;
3006;SDS011;1513;47.650;10.720;2023-10-13T11:01:42;4.23;;;1.90;;
3006;SDS011;1513;47.650;10.720;2023-10-13T11:04:12;3.97;;;2.20;;
3006;SDS011;1513;47.650;10.720;2023-10-13T11:06:52;6.73;;;2.13;;
3006;SDS011;1513;47.650;10.720;2023-10-13T11:09:25;4.30;;;2.30;;
3006;SDS011;1513;47.650;10.720;2023-10-13T11:11:52;4.63;;;2.07;;
3006;SDS011;1513;47.650;10.720;2023-10-13T11:14:28;5.90;;;2.37;;
3006;SDS011;1513;47.650;10.720;2023-10-13T11:16:56;7.20;;;2.33;;
3006;SDS011;1513;47.650;10.720;2023-10-13T11:22:13;4.80;;;2.20;;
3006;SDS011;1513;47.650;10.720;2023-10-13T11:25:02;3.53;;;2.13;;
3006;SDS011;1513;47.650;10.720;2023-10-13T11:27:39;9.47;;;2.60;;
3006;SDS011;1513;47.650;10.720;2023-10-13T11:30:21;3.63;;;1.80;;
3006;SDS011;1513;47.650;10.720;2023-10-13T11:33:00;4.83;;;2.20;;
3006;SDS011;1513;47.650;10.720;2023-10-13T11:35:34;6.13;;;2.20;;
3006;SDS011;1513;47.650;10.720;2023-10-13T11:38:28;7.67;;;2.30;;
3006;SDS011;1513;47.650;10.720;2023-10-13T11:41:13;7.97;;;2.27;;
3006;SDS011;1513;47.650;10.720;2023-10-13T11:43:41;7.50;;;2.10;;
3006;SDS011;1513;47.650;10.720;2023-10-13T11:46:17;4.67;;;2.00;;
3006;SDS011;1513;47.650;10.720;2023-10-13T11:49:05;6.23;;;2.20;;
3006;SDS011;1513;47.650;10.720;2023-10-13T11:51:38;11.23;;;2.80;;
3006;SDS011;1513;47.650;10.720;2023-10-13T11:54:08;7.53;;;2.20;;
3006;SDS011;1513;47.650;10.720;2023-10-13T11:56:34;4.93;;;1.97;;
3006;SDS011;1513;47.650;10.720;2023-10-13T11:59:04;4.03;;;2.20;;
3006;SDS011;1513;47.650;10.720;2023-10-13T12:01:31;7.50;;;2.60;;
3006;SDS011;1513;47.650;10.720;2023-10-13T12:04:16;7.23;;;2.13;;
3006;SDS011;1513;47.650;10.720;2023-10-13T12:07:05;9.10;;;2.43;;
3006;SDS011;1513;47.650;10.720;2023-10-13T12:09:51;11.40;;;3.03;;
3006;SDS011;1513;47.650;10.720;2023-10-13T12:12:25;9.80;;;2.70;;
3006;SDS011;1513;47.650;10.720;2023-10-13T12:14:52;9.20;;;2.00;;
3006;SDS011;1513;47.650;10.720;2023-10-13T12:17:22;11.10;;;1.97;;
3006;SDS011;1513;47.650;10.720;2023-10-13T12:19:56;11.67;;;2.63;;
3006;SDS011;1513;47.650;10.720;2023-10-13T12:22:24;8.37;;;2.57;;
3006;SDS011;1513;47.650;10.720;2023-10-13T12:24:54;8.47;;;2.43;;
3006;SDS011;1513;47.650;10.720;2023-10-13T12:27:20;4.47;;;2.20;;
3006;SDS011;1513;47.650;10.720;2023-10-13T12:30:07;6.67;;;2.33;;
3006;SDS011;1513;47.650;10.720;2023-10-13T12:32:38;4.50;;;2.30;;
3006;SDS011;1513;47.650;10.720;2023-10-13T12:35:10;12.20;;;2.57;;
3006;SDS011;1513;47.650;10.720;2023-10-13T12:37:36;12.30;;;2.03;;
3006;SDS011;1513;47.650;10.720;2023-10-13T12:40:10;5.70;;;2.50;;
3006;SDS011;1513;47.650;10.720;2023-10-13T12:42:59;15.70;;;3.30;;
3006;SDS011;1513;47.650;10.720;2023-10-13T12:45:45;9.67;;;2.67;;
3006;SDS011;1513;47.650;10.720;2023-10-13T12:48:30;10.27;;;3.10;;
3006;SDS011;1513;47.650;10.720;2023-10-13T12:51:16;12.90;;;2.70;;
3006;SDS011;1513;47.650;10.720;2023-10-13T12:53:52;13.13;;;2.83;;
3006;SDS011;1513;47.650;10.720;2023-10-13T12:56:19;6.50;;;2.30;;
3006;SDS011;1513;47.650;10.720;2023-10-13T12:58:51;3.20;;;2.10;;
3006;SDS011;1513;47.650;10.720;2023-10-13T13:01:19;9.23;;;2.97;;
3006;SDS011;1513;47.650;10.720;2023-10-13T13:03:47;9.67;;;2.23;;
3006;SDS011;1513;47.650;10.720;2023-10-13T13:06:20;7.67;;;2.50;;
3006;SDS011;1513;47.650;10.720;2023-10-13T13:08:51;9.00;;;2.20;;
3006;SDS011;1513;47.650;10.720;2023-10-13T13:11:21;9.93;;;2.27;;
3006;SDS011;1513;47.650;10.720;2023-10-13T13:13:48;5.23;;;2.43;;
3006;SDS011;1513;47.650;10.720;2023-10-13T13:16:15;7.30;;;2.77;;
3006;SDS011;1513;47.650;10.720;2023-10-13T13:18:49;6.23;;;2.27;;
3006;SDS011;1513;47.650;10.720;2023-10-13T13:21:15;6.23;;;1.97;;
3006;SDS011;1513;47.650;10.720;2023-10-13T13:23:46;19.73;;;2.33;;
3006;SDS011;1513;47.650;10.720;2023-10-13T13:26:13;8.30;;;2.03;;
3006;SDS011;1513;47.650;10.720;2023-10-13T13:28:45;7.20;;;2.70;;
3006;SDS011;1513;47.650;10.720;2023-10-13T13:31:16;9.17;;;2.20;;
3006;SDS011;1513;47.650;10.720;2023-10-13T13:33:43;11.23;;;3.83;;
3006;SDS011;1513;47.650;10.720;2023-10-13T13:36:09;6.77;;;2.30;;
3006;SDS011;1513;47.650;10.720;2023-10-13T13:38:39;4.83;;;2.20;;
3006;SDS011;1513;47.650;10.720;2023-10-13T13:41:12;6.77;;;2.77;;
3006;SDS011;1513;47.650;10.720;2023-10-13T13:43:45;11.80;;;2.60;;
3006;SDS011;1513;47.650;10.720;2023-10-13T13:46:19;5.93;;;2.60;;
3006;SDS011;1513;47.650;10.720;2023-10-13T13:48:50;6.63;;;2.37;;
3006;SDS011;1513;47.650;10.720;2023-10-13T13:51:23;10.53;;;2.60;;
3006;SDS011;1513;47.650;10.720;2023-10-13T13:53:53;3.50;;;2.30;;
3006;SDS011;1513;47.650;10.720;2023-10-13T13:56:20;6.80;;;2.47;;
3006;SDS011;1513;47.650;10.720;2023-10-13T13:58:50;8.00;;;2.40;;
3006;SDS011;1513;47.650;10.720;2023-10-13T14:01:17;5.37;;;2.10;;
3006;SDS011;1513;47.650;10.720;2023-10-13T14:03:45;6.63;;;2.27;;
3006;SDS011;1513;47.650;10.720;2023-10-13T14:06:13;7.90;;;2.60;;
3006;SDS011;1513;47.650;10.720;2023-10-13T14:08:46;5.43;;;2.50;;
3006;SDS011;1513;47.650;10.720;2023-10-13T14:11:23;11.97;;;3.50;;
3006;SDS011;1513;47.650;10.720;2023-10-13T14:14:06;7.57;;;3.00;;
3006;SDS011;1513;47.650;10.720;2023-10-13T14:16:43;7.83;;;3.10;;
3006;SDS011;1513;47.650;10.720;2023-10-13T14:19:15;10.93;;;3.83;;
3006;SDS011;1513;47.650;10.720;2023-10-13T14:21:52;16.03;;;4.97;;
3006;SDS011;1513;47.650;10.720;2023-10-13T14:24:19;7.17;;;3.40;;
3006;SDS011;1513;47.650;10.720;2023-10-13T14:26:55;8.53;;;3.53;;
3006;SDS011;1513;47.650;10.720;2023-10-13T14:29:27;7.50;;;3.57;;
3006;SDS011;1513;47.650;10.720;2023-10-13T14:31:53;8.37;;;3.67;;
3006;SDS011;1513;47.650;10.720;2023-10-13T14:34:20;13.50;;;6.17;;
3006;SDS011;1513;47.650;10.720;2023-10-13T14:36:47;10.83;;;4.77;;
3006;SDS011;1513;47.650;10.720;2023-10-13T14:39:14;15.30;;;5.10;;
3006;SDS011;1513;47.650;10.720;2023-10-13T14:41:40;11.60;;;4.73;;
3006;SDS011;1513;47.650;10.720;2023-10-13T14:44:08;14.40;;;4.43;;
3006;SDS011;1513;47.650;10.720;2023-10-13T14:46:38;12.97;;;3.87;;
3006;SDS011;1513;47.650;10.720;2023-10-13T14:49:04;12.23;;;4.87;;
3006;SDS011;1513;47.650;10.720;2023-10-13T14:51:31;11.93;;;7.30;;
3006;SDS011;1513;47.650;10.720;2023-10-13T14:53:58;8.30;;;4.77;;
3006;SDS011;1513;47.650;10.720;2023-10-13T14:56:25;11.80;;;4.80;;
3006;SDS011;1513;47.650;10.720;2023-10-13T14:58:52;17.67;;;5.50;;
3006;SDS011;1513;47.650;10.720;2023-10-13T15:01:20;18.43;;;6.10;;
3006;SDS011;1513;47.650;10.720;2023-10-13T15:03:47;8.63;;;5.50;;
3006;SDS011;1513;47.650;10.720;2023-10-13T15:06:18;9.40;;;4.90;;
3006;SDS011;1513;47.650;10.720;2023-10-13T15:08:46;13.87;;;4.30;;
3006;SDS011;1513;47.650;10.720;2023-10-13T15:11:14;7.07;;;3.70;;
3006;SDS011;1513;47.650;10.720;2023-10-13T15:13:43;9.13;;;3.53;;
3006;SDS011;1513;47.650;10.720;2023-10-13T15:16:16;14.43;;;3.73;;
3006;SDS011;1513;47.650;10.720;2023-10-13T15:18:47;6.60;;;3.57;;
3006;SDS011;1513;47.650;10.720;2023-10-13T15:21:20;9.70;;;3.93;;
3006;SDS011;1513;47.650;10.720;2023-10-13T15:23:48;8.13;;;3.33;;
3006;SDS011;1513;47.650;10.720;2023-10-13T15:26:19;6.93;;;3.10;;
3006;SDS011;1513;47.650;10.720;2023-10-13T15:28:49;6.13;;;3.20;;
3006;SDS011;1513;47.650;10.720;2023-10-13T15:31:27;6.47;;;3.30;;
3006;SDS011;1513;47.650;10.720;2023-10-13T15:34:00;5.57;;;3.17;;
3006;SDS011;1513;47.650;10.720;2023-10-13T15:36:42;13.30;;;3.23;;
3006;SDS011;1513;47.650;10.720;2023-10-13T15:39:09;6.70;;;3.80;;
3006;SDS011;1513;47.650;10.720;2023-10-13T15:41:36;9.90;;;3.83;;
3006;SDS011;1513;47.650;10.720;2023-10-13T15:44:13;9.03;;;4.17;;
3006;SDS011;1513;47.650;10.720;2023-10-13T15:46:40;11.13;;;3.80;;
3006;SDS011;1513;47.650;10.720;2023-10-13T15:49:07;8.17;;;3.90;;
3006;SDS011;1513;47.650;10.720;2023-10-13T15:51:33;8.10;;;3.60;;
3006;SDS011;1513;47.650;10.720;2023-10-13T15:54:04;10.03;;;4.13;;
3006;SDS011;1513;47.650;10.720;2023-10-13T15:56:47;5.27;;;3.33;;
3006;SDS011;1513;47.650;10.720;2023-10-13T15:59:14;8.90;;;3.73;;
3006;SDS011;1513;47.650;10.720;2023-10-13T16:01:41;17.10;;;3.70;;